sensor_id;sensor_type;location;lat;lon;timestamp;temperature;humidity
78297;DHT22;67555;47.660;19.622;2024-03-08T00:00:08;7.90;76.90
78297;DHT22;67555;47.660;19.622;2024-03-08T00:02:45;7.90;77.20
78297;DHT22;67555;47.660;19.622;2024-03-08T00:05:11;7.90;77.10
78297;DHT22;67555;47.660;19.622;2024-03-08T00:07:38;7.90;77.00
78297;DHT22;67555;47.660;19.622;2024-03-08T00:10:08;7.80;77.20
78297;DHT22;67555;47.660;19.622;2024-03-08T00:12:38;7.90;77.10
78297;DHT22;67555;47.660;19.622;2024-03-08T00:15:04;7.80;77.30
78297;DHT22;67555;47.660;19.622;2024-03-08T00:17:31;7.80;77.50
78297;DHT22;67555;47.660;19.622;2024-03-08T00:19:57;7.70;77.60
78297;DHT22;67555;47.660;19.622;2024-03-08T00:22:23;7.50;77.80
78297;DHT22;67555;47.660;19.622;2024-03-08T00:24:48;7.50;77.90
78297;DHT22;67555;47.660;19.622;2024-03-08T00:27:16;7.50;77.80
78297;DHT22;67555;47.660;19.622;2024-03-08T00:29:42;7.50;77.90
78297;DHT22;67555;47.660;19.622;2024-03-08T00:32:08;7.60;77.80
78297;DHT22;67555;47.660;19.622;2024-03-08T00:34:37;7.60;77.60
78297;DHT22;67555;47.660;19.622;2024-03-08T00:37:03;7.60;77.50
78297;DHT22;67555;47.660;19.622;2024-03-08T00:39:29;7.80;77.30
78297;DHT22;67555;47.660;19.622;2024-03-08T00:41:55;7.80;77.10
78297;DHT22;67555;47.660;19.622;2024-03-08T00:44:21;7.90;76.90
78297;DHT22;67555;47.660;19.622;2024-03-08T00:46:46;8.00;76.60
78297;DHT22;67555;47.660;19.622;2024-03-08T00:49:12;8.00;76.40
78297;DHT22;67555;47.660;19.622;2024-03-08T00:51:38;8.00;76.20
78297;DHT22;67555;47.660;19.622;2024-03-08T00:54:04;8.00;76.30
78297;DHT22;67555;47.660;19.622;2024-03-08T00:56:29;8.00;76.20
78297;DHT22;67555;47.660;19.622;2024-03-08T00:58:55;8.10;76.10
78297;DHT22;67555;47.660;19.622;2024-03-08T01:01:21;8.10;75.90
78297;DHT22;67555;47.660;19.622;2024-03-08T01:03:46;8.10;75.80
78297;DHT22;67555;47.660;19.622;2024-03-08T01:06:13;8.10;75.70
78297;DHT22;67555;47.660;19.622;2024-03-08T01:08:40;8.10;75.60
78297;DHT22;67555;47.660;19.622;2024-03-08T01:11:08;8.10;75.50
78297;DHT22;67555;47.660;19.622;2024-03-08T01:13:34;8.10;75.30
78297;DHT22;67555;47.660;19.622;2024-03-08T01:16:00;8.20;75.20
78297;DHT22;67555;47.660;19.622;2024-03-08T01:18:25;8.10;75.00
78297;DHT22;67555;47.660;19.622;2024-03-08T01:20:51;8.10;75.00
78297;DHT22;67555;47.660;19.622;2024-03-08T01:23:17;8.10;74.90
78297;DHT22;67555;47.660;19.622;2024-03-08T01:25:42;8.10;74.80
78297;DHT22;67555;47.660;19.622;2024-03-08T01:28:09;8.10;74.80
78297;DHT22;67555;47.660;19.622;2024-03-08T01:30:35;8.00;74.80
78297;DHT22;67555;47.660;19.622;2024-03-08T01:33:02;8.00;74.70
78297;DHT22;67555;47.660;19.622;2024-03-08T01:35:28;8.00;74.70
78297;DHT22;67555;47.660;19.622;2024-03-08T01:37:54;8.00;74.70
78297;DHT22;67555;47.660;19.622;2024-03-08T01:40:20;8.00;74.70
78297;DHT22;67555;47.660;19.622;2024-03-08T01:42:46;8.00;74.70
78297;DHT22;67555;47.660;19.622;2024-03-08T01:45:11;8.00;74.50
78297;DHT22;67555;47.660;19.622;2024-03-08T01:47:38;8.00;74.30
78297;DHT22;67555;47.660;19.622;2024-03-08T01:50:04;8.00;74.10
78297;DHT22;67555;47.660;19.622;2024-03-08T01:52:32;8.00;73.90
78297;DHT22;67555;47.660;19.622;2024-03-08T01:55:03;8.00;74.00
78297;DHT22;67555;47.660;19.622;2024-03-08T01:57:32;8.00;74.00
78297;DHT22;67555;47.660;19.622;2024-03-08T02:00:00;8.00;73.80
78297;DHT22;67555;47.660;19.622;2024-03-08T02:02:31;8.00;73.70
78297;DHT22;67555;47.660;19.622;2024-03-08T02:04:57;8.00;73.60
78297;DHT22;67555;47.660;19.622;2024-03-08T02:07:23;8.00;73.50
78297;DHT22;67555;47.660;19.622;2024-03-08T02:09:48;8.00;73.40
78297;DHT22;67555;47.660;19.622;2024-03-08T02:12:14;8.00;73.40
78297;DHT22;67555;47.660;19.622;2024-03-08T02:14:40;7.90;73.50
78297;DHT22;67555;47.660;19.622;2024-03-08T02:17:05;7.90;73.50
78297;DHT22;67555;47.660;19.622;2024-03-08T02:19:31;7.90;73.40
78297;DHT22;67555;47.660;19.622;2024-03-08T02:21:58;7.80;73.40
78297;DHT22;67555;47.660;19.622;2024-03-08T02:24:24;7.80;73.40
78297;DHT22;67555;47.660;19.622;2024-03-08T02:26:52;7.80;73.40
78297;DHT22;67555;47.660;19.622;2024-03-08T02:29:19;7.80;73.20
78297;DHT22;67555;47.660;19.622;2024-03-08T02:31:45;7.80;73.20
78297;DHT22;67555;47.660;19.622;2024-03-08T02:34:11;7.80;73.10
78297;DHT22;67555;47.660;19.622;2024-03-08T02:36:37;7.80;73.00
78297;DHT22;67555;47.660;19.622;2024-03-08T02:39:03;7.80;73.00
78297;DHT22;67555;47.660;19.622;2024-03-08T02:41:29;7.80;73.00
78297;DHT22;67555;47.660;19.622;2024-03-08T02:43:54;7.80;72.90
78297;DHT22;67555;47.660;19.622;2024-03-08T02:46:20;7.80;72.90
78297;DHT22;67555;47.660;19.622;2024-03-08T02:48:46;7.80;73.00
78297;DHT22;67555;47.660;19.622;2024-03-08T02:51:12;7.70;73.00
78297;DHT22;67555;47.660;19.622;2024-03-08T02:53:39;7.70;72.80
78297;DHT22;67555;47.660;19.622;2024-03-08T02:56:05;7.70;72.70
78297;DHT22;67555;47.660;19.622;2024-03-08T02:58:34;7.70;72.60
78297;DHT22;67555;47.660;19.622;2024-03-08T03:01:00;7.60;72.70
78297;DHT22;67555;47.660;19.622;2024-03-08T03:03:25;7.60;72.70
78297;DHT22;67555;47.660;19.622;2024-03-08T03:05:52;7.60;72.60
78297;DHT22;67555;47.660;19.622;2024-03-08T03:08:21;7.60;72.50
78297;DHT22;67555;47.660;19.622;2024-03-08T03:10:47;7.60;72.60
78297;DHT22;67555;47.660;19.622;2024-03-08T03:13:12;7.50;72.60
78297;DHT22;67555;47.660;19.622;2024-03-08T03:15:39;7.50;72.50
78297;DHT22;67555;47.660;19.622;2024-03-08T03:18:07;7.50;72.50
78297;DHT22;67555;47.660;19.622;2024-03-08T03:20:33;7.50;72.50
78297;DHT22;67555;47.660;19.622;2024-03-08T03:23:05;7.50;72.40
78297;DHT22;67555;47.660;19.622;2024-03-08T03:25:33;7.50;72.50
78297;DHT22;67555;47.660;19.622;2024-03-08T03:28:03;7.50;72.40
78297;DHT22;67555;47.660;19.622;2024-03-08T03:30:30;7.50;72.20
78297;DHT22;67555;47.660;19.622;2024-03-08T03:32:59;7.50;72.20
78297;DHT22;67555;47.660;19.622;2024-03-08T03:35:32;7.50;72.10
78297;DHT22;67555;47.660;19.622;2024-03-08T03:37:58;7.50;72.00
78297;DHT22;67555;47.660;19.622;2024-03-08T03:40:31;7.50;71.90
78297;DHT22;67555;47.660;19.622;2024-03-08T03:42:57;7.50;71.70
78297;DHT22;67555;47.660;19.622;2024-03-08T03:45:24;7.50;71.70
78297;DHT22;67555;47.660;19.622;2024-03-08T03:47:50;7.40;71.70
78297;DHT22;67555;47.660;19.622;2024-03-08T03:50:16;7.40;71.80
78297;DHT22;67555;47.660;19.622;2024-03-08T03:52:41;7.40;71.70
78297;DHT22;67555;47.660;19.622;2024-03-08T03:55:08;7.50;71.50
78297;DHT22;67555;47.660;19.622;2024-03-08T03:57:33;7.40;71.50
78297;DHT22;67555;47.660;19.622;2024-03-08T03:59:59;7.40;71.50
78297;DHT22;67555;47.660;19.622;2024-03-08T04:02:25;7.40;71.70
78297;DHT22;67555;47.660;19.622;2024-03-08T04:04:52;7.40;71.60
78297;DHT22;67555;47.660;19.622;2024-03-08T04:07:20;7.50;71.50
78297;DHT22;67555;47.660;19.622;2024-03-08T04:09:46;7.50;71.40
78297;DHT22;67555;47.660;19.622;2024-03-08T04:12:12;7.50;71.30
78297;DHT22;67555;47.660;19.622;2024-03-08T04:14:42;7.50;71.20
78297;DHT22;67555;47.660;19.622;2024-03-08T04:17:08;7.50;71.10
78297;DHT22;67555;47.660;19.622;2024-03-08T04:19:38;7.50;71.20
78297;DHT22;67555;47.660;19.622;2024-03-08T04:22:03;7.50;71.20
78297;DHT22;67555;47.660;19.622;2024-03-08T04:24:29;7.50;71.20
78297;DHT22;67555;47.660;19.622;2024-03-08T04:26:56;7.50;71.20
78297;DHT22;67555;47.660;19.622;2024-03-08T04:29:23;7.50;71.30
78297;DHT22;67555;47.660;19.622;2024-03-08T04:31:48;7.50;71.40
78297;DHT22;67555;47.660;19.622;2024-03-08T04:34:14;7.50;71.30
78297;DHT22;67555;47.660;19.622;2024-03-08T04:36:40;7.50;71.20
78297;DHT22;67555;47.660;19.622;2024-03-08T04:39:06;7.40;71.30
78297;DHT22;67555;47.660;19.622;2024-03-08T04:41:31;7.50;71.20
78297;DHT22;67555;47.660;19.622;2024-03-08T04:43:59;7.40;71.30
78297;DHT22;67555;47.660;19.622;2024-03-08T04:46:25;7.50;71.20
78297;DHT22;67555;47.660;19.622;2024-03-08T04:48:51;7.50;71.20
78297;DHT22;67555;47.660;19.622;2024-03-08T04:51:16;7.50;71.10
78297;DHT22;67555;47.660;19.622;2024-03-08T04:53:42;7.50;71.10
78297;DHT22;67555;47.660;19.622;2024-03-08T04:56:08;7.50;71.00
78297;DHT22;67555;47.660;19.622;2024-03-08T04:58:37;7.50;70.80
78297;DHT22;67555;47.660;19.622;2024-03-08T05:01:02;7.50;70.70
78297;DHT22;67555;47.660;19.622;2024-03-08T05:03:28;7.40;70.80
78297;DHT22;67555;47.660;19.622;2024-03-08T05:05:55;7.40;70.80
78297;DHT22;67555;47.660;19.622;2024-03-08T05:08:23;7.40;70.70
78297;DHT22;67555;47.660;19.622;2024-03-08T05:10:48;7.40;70.60
78297;DHT22;67555;47.660;19.622;2024-03-08T05:13:14;7.40;70.50
78297;DHT22;67555;47.660;19.622;2024-03-08T05:15:40;7.40;70.50
78297;DHT22;67555;47.660;19.622;2024-03-08T05:18:05;7.40;70.60
78297;DHT22;67555;47.660;19.622;2024-03-08T05:20:31;7.30;70.70
78297;DHT22;67555;47.660;19.622;2024-03-08T05:22:57;7.40;70.70
78297;DHT22;67555;47.660;19.622;2024-03-08T05:25:26;7.30;70.60
78297;DHT22;67555;47.660;19.622;2024-03-08T05:27:52;7.30;70.60
78297;DHT22;67555;47.660;19.622;2024-03-08T05:30:18;7.40;70.50
78297;DHT22;67555;47.660;19.622;2024-03-08T05:32:44;7.40;70.50
78297;DHT22;67555;47.660;19.622;2024-03-08T05:35:12;7.40;70.30
78297;DHT22;67555;47.660;19.622;2024-03-08T05:37:39;7.40;70.20
78297;DHT22;67555;47.660;19.622;2024-03-08T05:40:06;7.40;70.10
78297;DHT22;67555;47.660;19.622;2024-03-08T05:42:37;7.50;69.90
78297;DHT22;67555;47.660;19.622;2024-03-08T05:45:04;7.50;69.80
78297;DHT22;67555;47.660;19.622;2024-03-08T05:47:31;7.50;69.80
78297;DHT22;67555;47.660;19.622;2024-03-08T05:49:58;7.50;69.70
78297;DHT22;67555;47.660;19.622;2024-03-08T05:52:24;7.50;69.60
78297;DHT22;67555;47.660;19.622;2024-03-08T05:54:51;7.50;69.60
78297;DHT22;67555;47.660;19.622;2024-03-08T05:57:17;7.50;69.60
78297;DHT22;67555;47.660;19.622;2024-03-08T05:59:43;7.50;69.50
78297;DHT22;67555;47.660;19.622;2024-03-08T06:02:09;7.50;69.40
78297;DHT22;67555;47.660;19.622;2024-03-08T06:04:34;7.60;69.40
78297;DHT22;67555;47.660;19.622;2024-03-08T06:07:00;7.60;69.40
78297;DHT22;67555;47.660;19.622;2024-03-08T06:09:28;7.60;69.30
78297;DHT22;67555;47.660;19.622;2024-03-08T06:11:54;7.60;69.20
78297;DHT22;67555;47.660;19.622;2024-03-08T06:14:20;7.60;69.20
78297;DHT22;67555;47.660;19.622;2024-03-08T06:16:46;7.60;69.10
78297;DHT22;67555;47.660;19.622;2024-03-08T06:19:13;7.60;69.30
78297;DHT22;67555;47.660;19.622;2024-03-08T06:21:39;7.50;69.50
78297;DHT22;67555;47.660;19.622;2024-03-08T06:24:05;7.50;69.50
78297;DHT22;67555;47.660;19.622;2024-03-08T06:26:30;7.50;69.50
78297;DHT22;67555;47.660;19.622;2024-03-08T06:28:57;7.60;69.30
78297;DHT22;67555;47.660;19.622;2024-03-08T06:31:22;7.60;69.30
78297;DHT22;67555;47.660;19.622;2024-03-08T06:33:48;7.60;69.20
78297;DHT22;67555;47.660;19.622;2024-03-08T06:36:18;7.60;69.10
78297;DHT22;67555;47.660;19.622;2024-03-08T06:38:48;7.70;69.00
78297;DHT22;67555;47.660;19.622;2024-03-08T06:41:13;7.70;69.00
78297;DHT22;67555;47.660;19.622;2024-03-08T06:43:45;7.80;69.00
78297;DHT22;67555;47.660;19.622;2024-03-08T06:46:11;7.80;68.90
78297;DHT22;67555;47.660;19.622;2024-03-08T06:48:40;7.80;68.80
78297;DHT22;67555;47.660;19.622;2024-03-08T06:51:06;7.80;68.60
78297;DHT22;67555;47.660;19.622;2024-03-08T06:53:32;7.80;68.60
78297;DHT22;67555;47.660;19.622;2024-03-08T06:55:58;7.80;68.70
78297;DHT22;67555;47.660;19.622;2024-03-08T06:58:24;7.80;68.60
78297;DHT22;67555;47.660;19.622;2024-03-08T07:00:50;7.80;68.60
78297;DHT22;67555;47.660;19.622;2024-03-08T07:03:19;8.00;68.50
78297;DHT22;67555;47.660;19.622;2024-03-08T07:05:45;7.90;68.40
78297;DHT22;67555;47.660;19.622;2024-03-08T07:08:11;7.80;68.60
78297;DHT22;67555;47.660;19.622;2024-03-08T07:10:41;7.90;68.50
78297;DHT22;67555;47.660;19.622;2024-03-08T07:13:10;7.90;68.50
78297;DHT22;67555;47.660;19.622;2024-03-08T07:15:36;8.00;68.50
78297;DHT22;67555;47.660;19.622;2024-03-08T07:18:02;8.00;68.40
78297;DHT22;67555;47.660;19.622;2024-03-08T07:20:28;8.00;68.20
78297;DHT22;67555;47.660;19.622;2024-03-08T07:22:54;8.00;68.20
78297;DHT22;67555;47.660;19.622;2024-03-08T07:25:20;8.10;68.20
78297;DHT22;67555;47.660;19.622;2024-03-08T07:27:53;8.10;68.10
78297;DHT22;67555;47.660;19.622;2024-03-08T07:30:20;8.10;68.00
78297;DHT22;67555;47.660;19.622;2024-03-08T07:33:05;8.10;68.00
78297;DHT22;67555;47.660;19.622;2024-03-08T07:35:33;8.10;67.90
78297;DHT22;67555;47.660;19.622;2024-03-08T07:37:58;8.00;67.90
78297;DHT22;67555;47.660;19.622;2024-03-08T07:40:25;8.00;67.80
78297;DHT22;67555;47.660;19.622;2024-03-08T07:42:52;8.00;68.00
78297;DHT22;67555;47.660;19.622;2024-03-08T07:45:18;8.00;68.00
78297;DHT22;67555;47.660;19.622;2024-03-08T07:47:43;8.00;68.10
78297;DHT22;67555;47.660;19.622;2024-03-08T07:50:09;7.90;68.20
78297;DHT22;67555;47.660;19.622;2024-03-08T07:52:35;8.00;68.20
78297;DHT22;67555;47.660;19.622;2024-03-08T07:55:02;8.00;68.00
78297;DHT22;67555;47.660;19.622;2024-03-08T07:57:29;8.00;67.90
78297;DHT22;67555;47.660;19.622;2024-03-08T07:59:55;8.00;68.00
78297;DHT22;67555;47.660;19.622;2024-03-08T08:02:21;8.00;68.00
78297;DHT22;67555;47.660;19.622;2024-03-08T08:04:47;8.10;68.00
78297;DHT22;67555;47.660;19.622;2024-03-08T08:07:12;8.00;67.90
78297;DHT22;67555;47.660;19.622;2024-03-08T08:09:40;8.00;68.00
78297;DHT22;67555;47.660;19.622;2024-03-08T08:12:08;8.10;67.90
78297;DHT22;67555;47.660;19.622;2024-03-08T08:14:37;8.10;67.80
78297;DHT22;67555;47.660;19.622;2024-03-08T08:17:03;8.10;67.90
78297;DHT22;67555;47.660;19.622;2024-03-08T08:19:30;8.10;67.90
78297;DHT22;67555;47.660;19.622;2024-03-08T08:21:55;8.20;67.90
78297;DHT22;67555;47.660;19.622;2024-03-08T08:24:21;8.20;67.90
78297;DHT22;67555;47.660;19.622;2024-03-08T08:26:47;8.20;67.80
78297;DHT22;67555;47.660;19.622;2024-03-08T08:29:13;8.20;67.90
78297;DHT22;67555;47.660;19.622;2024-03-08T08:31:39;8.30;67.80
78297;DHT22;67555;47.660;19.622;2024-03-08T08:34:05;8.30;67.70
78297;DHT22;67555;47.660;19.622;2024-03-08T08:36:32;8.20;67.70
78297;DHT22;67555;47.660;19.622;2024-03-08T08:38:59;8.30;67.60
78297;DHT22;67555;47.660;19.622;2024-03-08T08:41:25;8.40;67.50
78297;DHT22;67555;47.660;19.622;2024-03-08T08:43:52;8.50;67.20
78297;DHT22;67555;47.660;19.622;2024-03-08T08:46:18;8.60;67.10
78297;DHT22;67555;47.660;19.622;2024-03-08T08:48:44;8.60;66.80
78297;DHT22;67555;47.660;19.622;2024-03-08T08:51:13;8.60;66.80
78297;DHT22;67555;47.660;19.622;2024-03-08T08:53:39;8.60;66.80
78297;DHT22;67555;47.660;19.622;2024-03-08T08:56:09;8.70;66.60
78297;DHT22;67555;47.660;19.622;2024-03-08T08:58:39;8.80;66.40
78297;DHT22;67555;47.660;19.622;2024-03-08T09:01:06;8.90;66.20
78297;DHT22;67555;47.660;19.622;2024-03-08T09:03:33;8.90;66.20
78297;DHT22;67555;47.660;19.622;2024-03-08T09:06:00;8.90;66.20
78297;DHT22;67555;47.660;19.622;2024-03-08T09:08:28;8.90;66.20
78297;DHT22;67555;47.660;19.622;2024-03-08T09:10:54;8.90;66.10
78297;DHT22;67555;47.660;19.622;2024-03-08T09:13:20;8.90;66.10
78297;DHT22;67555;47.660;19.622;2024-03-08T09:15:46;8.90;66.10
78297;DHT22;67555;47.660;19.622;2024-03-08T09:18:11;8.90;66.20
78297;DHT22;67555;47.660;19.622;2024-03-08T09:20:37;9.00;66.10
78297;DHT22;67555;47.660;19.622;2024-03-08T09:23:03;9.00;66.00
78297;DHT22;67555;47.660;19.622;2024-03-08T09:25:29;9.00;65.90
78297;DHT22;67555;47.660;19.622;2024-03-08T09:27:55;9.00;65.80
78297;DHT22;67555;47.660;19.622;2024-03-08T09:30:21;9.20;65.80
78297;DHT22;67555;47.660;19.622;2024-03-08T09:32:47;9.20;65.60
78297;DHT22;67555;47.660;19.622;2024-03-08T09:35:13;9.40;65.40
78297;DHT22;67555;47.660;19.622;2024-03-08T09:37:39;9.40;65.20
78297;DHT22;67555;47.660;19.622;2024-03-08T09:40:05;9.40;65.30
78297;DHT22;67555;47.660;19.622;2024-03-08T09:42:35;9.50;65.20
78297;DHT22;67555;47.660;19.622;2024-03-08T09:45:09;9.50;65.10
78297;DHT22;67555;47.660;19.622;2024-03-08T09:47:44;9.60;65.00
78297;DHT22;67555;47.660;19.622;2024-03-08T09:50:11;9.60;65.00
78297;DHT22;67555;47.660;19.622;2024-03-08T09:52:40;9.50;65.00
78297;DHT22;67555;47.660;19.622;2024-03-08T09:55:07;9.50;65.00
78297;DHT22;67555;47.660;19.622;2024-03-08T09:57:33;9.50;65.10
78297;DHT22;67555;47.660;19.622;2024-03-08T10:00:02;9.50;65.10
78297;DHT22;67555;47.660;19.622;2024-03-08T10:02:33;9.60;65.10
78297;DHT22;67555;47.660;19.622;2024-03-08T10:05:01;9.70;65.00
78297;DHT22;67555;47.660;19.622;2024-03-08T10:07:28;9.70;64.90
78297;DHT22;67555;47.660;19.622;2024-03-08T10:09:54;9.70;64.80
78297;DHT22;67555;47.660;19.622;2024-03-08T10:12:20;9.80;64.70
78297;DHT22;67555;47.660;19.622;2024-03-08T10:14:46;9.80;64.70
78297;DHT22;67555;47.660;19.622;2024-03-08T10:17:12;9.80;64.70
78297;DHT22;67555;47.660;19.622;2024-03-08T10:19:38;9.80;64.60
78297;DHT22;67555;47.660;19.622;2024-03-08T10:22:05;10.00;64.50
78297;DHT22;67555;47.660;19.622;2024-03-08T10:24:31;10.00;64.50
78297;DHT22;67555;47.660;19.622;2024-03-08T10:27:02;10.00;64.40
78297;DHT22;67555;47.660;19.622;2024-03-08T10:29:31;10.00;64.30
78297;DHT22;67555;47.660;19.622;2024-03-08T10:31:57;10.00;64.40
78297;DHT22;67555;47.660;19.622;2024-03-08T10:34:23;10.00;64.40
78297;DHT22;67555;47.660;19.622;2024-03-08T10:36:52;10.00;64.30
78297;DHT22;67555;47.660;19.622;2024-03-08T10:39:24;10.00;64.40
78297;DHT22;67555;47.660;19.622;2024-03-08T10:41:58;10.00;64.40
78297;DHT22;67555;47.660;19.622;2024-03-08T10:44:43;10.10;64.30
78297;DHT22;67555;47.660;19.622;2024-03-08T10:47:26;10.20;64.30
78297;DHT22;67555;47.660;19.622;2024-03-08T10:49:59;10.20;64.20
78297;DHT22;67555;47.660;19.622;2024-03-08T10:52:29;10.40;64.10
78297;DHT22;67555;47.660;19.622;2024-03-08T10:54:56;10.40;64.00
78297;DHT22;67555;47.660;19.622;2024-03-08T10:57:22;10.40;64.00
78297;DHT22;67555;47.660;19.622;2024-03-08T10:59:49;10.50;63.80
78297;DHT22;67555;47.660;19.622;2024-03-08T11:02:17;10.70;63.60
78297;DHT22;67555;47.660;19.622;2024-03-08T11:04:47;10.90;63.50
78297;DHT22;67555;47.660;19.622;2024-03-08T11:07:15;11.00;63.30
78297;DHT22;67555;47.660;19.622;2024-03-08T11:09:47;11.10;63.10
78297;DHT22;67555;47.660;19.622;2024-03-08T11:12:28;11.20;62.90
78297;DHT22;67555;47.660;19.622;2024-03-08T11:15:01;11.40;62.60
78297;DHT22;67555;47.660;19.622;2024-03-08T11:19:59;11.70;61.80
78297;DHT22;67555;47.660;19.622;2024-03-08T11:22:32;11.90;61.60
78297;DHT22;67555;47.660;19.622;2024-03-08T11:24:59;11.90;61.20
78297;DHT22;67555;47.660;19.622;2024-03-08T11:27:30;11.90;61.20
78297;DHT22;67555;47.660;19.622;2024-03-08T11:30:04;11.90;61.30
78297;DHT22;67555;47.660;19.622;2024-03-08T11:32:37;11.90;61.20
78297;DHT22;67555;47.660;19.622;2024-03-08T11:35:07;11.80;61.30
78297;DHT22;67555;47.660;19.622;2024-03-08T11:37:34;11.70;61.30
78297;DHT22;67555;47.660;19.622;2024-03-08T11:40:01;11.60;61.50
78297;DHT22;67555;47.660;19.622;2024-03-08T11:42:30;11.50;61.70
78297;DHT22;67555;47.660;19.622;2024-03-08T11:44:56;11.30;61.80
78297;DHT22;67555;47.660;19.622;2024-03-08T11:47:22;11.10;62.30
78297;DHT22;67555;47.660;19.622;2024-03-08T11:49:48;11.00;62.50
78297;DHT22;67555;47.660;19.622;2024-03-08T11:52:15;10.90;62.70
78297;DHT22;67555;47.660;19.622;2024-03-08T11:54:41;10.90;62.90
78297;DHT22;67555;47.660;19.622;2024-03-08T11:57:10;11.00;62.80
78297;DHT22;67555;47.660;19.622;2024-03-08T11:59:36;11.10;62.60
78297;DHT22;67555;47.660;19.622;2024-03-08T12:02:03;11.10;62.40
78297;DHT22;67555;47.660;19.622;2024-03-08T12:04:30;11.10;62.20
78297;DHT22;67555;47.660;19.622;2024-03-08T12:06:58;11.10;62.20
78297;DHT22;67555;47.660;19.622;2024-03-08T12:09:25;11.10;62.20
78297;DHT22;67555;47.660;19.622;2024-03-08T12:11:51;11.20;62.10
78297;DHT22;67555;47.660;19.622;2024-03-08T12:14:17;11.30;62.00
78297;DHT22;67555;47.660;19.622;2024-03-08T12:16:43;11.30;61.90
78297;DHT22;67555;47.660;19.622;2024-03-08T12:19:10;11.10;62.20
78297;DHT22;67555;47.660;19.622;2024-03-08T12:21:36;11.10;62.40
78297;DHT22;67555;47.660;19.622;2024-03-08T12:24:06;11.10;62.50
78297;DHT22;67555;47.660;19.622;2024-03-08T12:26:37;11.00;62.50
78297;DHT22;67555;47.660;19.622;2024-03-08T12:29:24;11.00;62.60
78297;DHT22;67555;47.660;19.622;2024-03-08T12:31:55;11.00;62.70
78297;DHT22;67555;47.660;19.622;2024-03-08T12:34:23;11.00;62.70
78297;DHT22;67555;47.660;19.622;2024-03-08T12:36:51;11.00;62.70
78297;DHT22;67555;47.660;19.622;2024-03-08T12:39:21;11.10;62.70
78297;DHT22;67555;47.660;19.622;2024-03-08T12:41:53;11.10;62.60
78297;DHT22;67555;47.660;19.622;2024-03-08T12:44:20;11.10;62.60
78297;DHT22;67555;47.660;19.622;2024-03-08T12:46:47;11.10;62.50
78297;DHT22;67555;47.660;19.622;2024-03-08T12:49:13;11.10;62.60
78297;DHT22;67555;47.660;19.622;2024-03-08T12:51:44;11.00;62.60
78297;DHT22;67555;47.660;19.622;2024-03-08T12:54:10;10.90;62.70
78297;DHT22;67555;47.660;19.622;2024-03-08T12:56:36;10.90;62.90
78297;DHT22;67555;47.660;19.622;2024-03-08T12:59:06;10.80;63.00
78297;DHT22;67555;47.660;19.622;2024-03-08T13:01:38;10.90;63.10
78297;DHT22;67555;47.660;19.622;2024-03-08T13:04:05;10.90;63.10
78297;DHT22;67555;47.660;19.622;2024-03-08T13:06:32;11.00;63.00
78297;DHT22;67555;47.660;19.622;2024-03-08T13:08:58;11.00;62.90
78297;DHT22;67555;47.660;19.622;2024-03-08T13:11:26;11.10;62.80
78297;DHT22;67555;47.660;19.622;2024-03-08T13:13:52;11.10;62.90
78297;DHT22;67555;47.660;19.622;2024-03-08T13:16:18;11.00;62.90
78297;DHT22;67555;47.660;19.622;2024-03-08T13:18:45;11.00;62.90
78297;DHT22;67555;47.660;19.622;2024-03-08T13:21:14;11.00;63.00
78297;DHT22;67555;47.660;19.622;2024-03-08T13:23:41;11.00;63.00
78297;DHT22;67555;47.660;19.622;2024-03-08T13:26:11;11.00;63.10
78297;DHT22;67555;47.660;19.622;2024-03-08T13:28:45;11.10;63.00
78297;DHT22;67555;47.660;19.622;2024-03-08T13:31:10;11.10;63.00
78297;DHT22;67555;47.660;19.622;2024-03-08T13:33:37;11.10;63.00
78297;DHT22;67555;47.660;19.622;2024-03-08T13:36:08;11.10;63.00
78297;DHT22;67555;47.660;19.622;2024-03-08T13:38:45;11.10;63.10
78297;DHT22;67555;47.660;19.622;2024-03-08T13:41:12;11.10;63.20
78297;DHT22;67555;47.660;19.622;2024-03-08T13:43:48;11.10;63.10
78297;DHT22;67555;47.660;19.622;2024-03-08T13:46:15;11.10;63.10
78297;DHT22;67555;47.660;19.622;2024-03-08T13:48:41;11.10;63.10
78297;DHT22;67555;47.660;19.622;2024-03-08T13:51:07;11.10;63.10
78297;DHT22;67555;47.660;19.622;2024-03-08T13:53:38;11.20;63.00
78297;DHT22;67555;47.660;19.622;2024-03-08T13:56:06;11.30;62.90
78297;DHT22;67555;47.660;19.622;2024-03-08T13:58:31;11.30;62.80
78297;DHT22;67555;47.660;19.622;2024-03-08T14:00:57;11.40;62.70
78297;DHT22;67555;47.660;19.622;2024-03-08T14:03:23;11.50;62.70
78297;DHT22;67555;47.660;19.622;2024-03-08T14:05:51;11.40;62.70
78297;DHT22;67555;47.660;19.622;2024-03-08T14:08:17;11.40;62.70
78297;DHT22;67555;47.660;19.622;2024-03-08T14:10:43;11.40;62.70
78297;DHT22;67555;47.660;19.622;2024-03-08T14:13:12;11.30;62.90
78297;DHT22;67555;47.660;19.622;2024-03-08T14:15:40;11.20;63.00
78297;DHT22;67555;47.660;19.622;2024-03-08T14:18:08;11.10;63.00
78297;DHT22;67555;47.660;19.622;2024-03-08T14:20:34;11.10;63.20
78297;DHT22;67555;47.660;19.622;2024-03-08T14:22:59;11.00;63.30
78297;DHT22;67555;47.660;19.622;2024-03-08T14:25:25;10.90;63.40
78297;DHT22;67555;47.660;19.622;2024-03-08T14:27:52;10.80;63.70
78297;DHT22;67555;47.660;19.622;2024-03-08T14:30:29;10.80;63.70
78297;DHT22;67555;47.660;19.622;2024-03-08T14:33:07;10.80;63.70
78297;DHT22;67555;47.660;19.622;2024-03-08T14:35:36;10.80;63.70
78297;DHT22;67555;47.660;19.622;2024-03-08T14:38:02;10.70;63.70
78297;DHT22;67555;47.660;19.622;2024-03-08T14:40:28;10.70;63.80
78297;DHT22;67555;47.660;19.622;2024-03-08T14:42:56;10.70;63.80
78297;DHT22;67555;47.660;19.622;2024-03-08T14:45:21;10.70;63.80
78297;DHT22;67555;47.660;19.622;2024-03-08T14:47:50;10.70;63.70
78297;DHT22;67555;47.660;19.622;2024-03-08T14:50:19;10.70;63.80
78297;DHT22;67555;47.660;19.622;2024-03-08T14:52:45;10.60;63.90
78297;DHT22;67555;47.660;19.622;2024-03-08T14:55:17;10.60;64.10
78297;DHT22;67555;47.660;19.622;2024-03-08T14:57:45;10.60;64.20
78297;DHT22;67555;47.660;19.622;2024-03-08T15:00:12;10.50;64.30
78297;DHT22;67555;47.660;19.622;2024-03-08T15:02:53;10.50;64.40
78297;DHT22;67555;47.660;19.622;2024-03-08T15:05:19;10.50;64.40
78297;DHT22;67555;47.660;19.622;2024-03-08T15:07:46;10.50;64.60
78297;DHT22;67555;47.660;19.622;2024-03-08T15:10:12;10.40;64.70
78297;DHT22;67555;47.660;19.622;2024-03-08T15:12:41;10.40;64.70
78297;DHT22;67555;47.660;19.622;2024-03-08T15:15:09;10.40;64.70
78297;DHT22;67555;47.660;19.622;2024-03-08T15:17:36;10.30;64.90
78297;DHT22;67555;47.660;19.622;2024-03-08T15:20:09;10.30;65.10
78297;DHT22;67555;47.660;19.622;2024-03-08T15:22:47;10.30;65.20
78297;DHT22;67555;47.660;19.622;2024-03-08T15:25:12;10.30;65.30
78297;DHT22;67555;47.660;19.622;2024-03-08T15:27:46;10.30;65.20